createdAt,value
2022-07-25T00:02:00.599Z,5.65
2022-07-25T00:06:54.964Z,5.15
2022-07-25T00:09:21.522Z,5.47
2022-07-25T00:11:47.993Z,5.53
2022-07-25T00:14:14.541Z,5.32
2022-07-25T00:16:41.095Z,5.57
2022-07-25T00:19:07.593Z,5.40
2022-07-25T00:21:34.098Z,5.57
2022-07-25T00:24:00.593Z,5.43
2022-07-25T00:26:27.078Z,4.97
2022-07-25T00:28:53.610Z,5.45
2022-07-25T00:31:20.162Z,5.50
2022-07-25T00:33:46.681Z,6.00
2022-07-25T00:36:13.483Z,5.65
2022-07-25T00:38:39.988Z,5.90
2022-07-25T00:41:06.566Z,5.75
2022-07-25T00:43:33.024Z,5.32
2022-07-25T00:46:00.536Z,5.10
2022-07-25T00:48:28.307Z,5.25
2022-07-25T00:50:58.786Z,5.40
2022-07-25T00:53:25.928Z,5.57
2022-07-25T00:55:52.622Z,5.70
2022-07-25T00:58:19.207Z,5.50
2022-07-25T01:00:46.435Z,5.35
2022-07-25T01:03:13.013Z,5.37
2022-07-25T01:05:39.721Z,5.20
2022-07-25T01:08:06.441Z,5.00
2022-07-25T01:10:33.228Z,5.00
2022-07-25T01:12:59.773Z,4.90
2022-07-25T01:15:27.063Z,5.13
2022-07-25T01:17:53.609Z,5.57
2022-07-25T01:20:22.284Z,4.60
2022-07-25T01:22:49.536Z,5.00
2022-07-25T01:25:16.585Z,5.10
2022-07-25T01:27:43.525Z,5.75
2022-07-25T01:30:12.150Z,5.35
2022-07-25T01:32:38.711Z,5.10
2022-07-25T01:35:06.809Z,5.90
2022-07-25T01:39:59.945Z,5.10
2022-07-25T01:42:26.692Z,5.53
2022-07-25T01:44:53.274Z,5.53
2022-07-25T01:47:20.091Z,5.63
2022-07-25T01:49:46.630Z,5.70
2022-07-25T01:52:13.975Z,5.18
2022-07-25T01:54:40.726Z,5.28
2022-07-25T01:57:09.983Z,4.97
2022-07-25T01:59:39.262Z,5.43
2022-07-25T02:02:06.767Z,5.40
2022-07-25T02:04:34.812Z,5.30
2022-07-25T02:07:01.621Z,5.20
2022-07-25T02:09:28.870Z,4.63
2022-07-25T02:11:55.434Z,5.00
2022-07-25T02:14:22.780Z,4.95
2022-07-25T02:16:49.795Z,5.50
2022-07-25T02:19:16.342Z,4.03
2022-07-25T02:21:43.118Z,5.18
2022-07-25T02:24:09.989Z,5.28
2022-07-25T02:26:36.776Z,4.63
2022-07-25T02:29:03.661Z,4.68
2022-07-25T02:31:30.156Z,5.28
2022-07-25T02:33:56.717Z,5.47
2022-07-25T02:36:23.239Z,5.38
2022-07-25T02:38:49.769Z,4.95
2022-07-25T02:41:16.327Z,5.30
2022-07-25T02:43:42.793Z,5.13
2022-07-25T02:46:09.474Z,4.20
2022-07-25T02:48:36.045Z,5.03
2022-07-25T02:51:02.645Z,5.32
2022-07-25T02:53:55.464Z,5.20
2022-07-25T02:56:15.671Z,4.80
2022-07-25T02:58:42.969Z,5.55
2022-07-25T03:01:09.515Z,5.18
2022-07-25T03:03:36.222Z,5.22
2022-07-25T03:06:02.763Z,5.78
2022-07-25T03:08:29.250Z,5.03
2022-07-25T03:10:55.749Z,5.40
2022-07-25T03:13:22.234Z,5.35
2022-07-25T03:15:48.984Z,5.22
2022-07-25T03:18:16.204Z,5.85
2022-07-25T03:20:42.785Z,4.88
2022-07-25T03:23:09.263Z,5.38
2022-07-25T03:25:35.759Z,5.15
2022-07-25T03:28:02.281Z,5.70
2022-07-25T03:30:28.775Z,5.57
2022-07-25T03:32:55.253Z,4.95
2022-07-25T03:35:21.826Z,5.38
2022-07-25T03:37:48.307Z,4.85
2022-07-25T03:40:16.001Z,5.60
2022-07-25T03:42:42.809Z,5.60
2022-07-25T03:45:09.985Z,5.05
2022-07-25T03:47:36.510Z,5.40
2022-07-25T03:50:03.333Z,5.82
2022-07-25T03:52:29.888Z,5.70
2022-07-25T03:54:56.382Z,5.00
2022-07-25T03:57:22.914Z,5.22
2022-07-25T03:59:49.466Z,5.53
2022-07-25T04:02:16.097Z,5.05
2022-07-25T04:04:42.688Z,5.10
2022-07-25T04:07:09.173Z,5.85
2022-07-25T04:09:36.952Z,5.13
2022-07-25T04:12:03.749Z,5.97
2022-07-25T04:14:30.255Z,4.90
2022-07-25T04:16:56.807Z,5.22
2022-07-25T04:19:23.527Z,5.45
2022-07-25T04:21:52.716Z,5.35
2022-07-25T04:24:19.271Z,5.75
2022-07-25T04:26:45.798Z,5.45
2022-07-25T04:29:12.313Z,5.60
2022-07-25T04:31:38.928Z,5.45
2022-07-25T04:34:05.790Z,6.07
2022-07-25T04:36:32.616Z,4.90
2022-07-25T04:38:59.095Z,6.03
2022-07-25T04:41:25.616Z,5.60
2022-07-25T04:43:52.088Z,5.95
2022-07-25T04:46:22.198Z,5.05
2022-07-25T04:48:48.925Z,5.10
2022-07-25T04:51:16.610Z,5.40
2022-07-25T04:53:43.153Z,5.68
2022-07-25T04:56:09.784Z,5.63
2022-07-25T04:58:36.517Z,5.50
2022-07-25T05:01:03.136Z,5.32
2022-07-25T05:03:29.694Z,5.22
2022-07-25T05:05:56.289Z,5.70
2022-07-25T05:08:22.800Z,5.38
2022-07-25T05:10:49.355Z,5.63
2022-07-25T05:13:16.341Z,5.13
2022-07-25T05:15:42.899Z,5.30
2022-07-25T05:18:09.385Z,5.45
2022-07-25T05:20:35.924Z,5.72
2022-07-25T05:23:02.433Z,4.78
2022-07-25T05:25:29.338Z,5.35
2022-07-25T05:27:58.449Z,5.40
2022-07-25T05:30:25.270Z,5.72
2022-07-25T05:32:51.855Z,5.18
2022-07-25T05:35:18.354Z,5.38
2022-07-25T05:37:44.862Z,5.68
2022-07-25T05:40:11.389Z,5.68
2022-07-25T05:42:37.910Z,5.57
2022-07-25T05:45:05.093Z,5.43
2022-07-25T05:47:31.619Z,5.73
2022-07-25T05:49:58.165Z,5.85
2022-07-25T05:52:24.677Z,6.07
2022-07-25T05:54:51.347Z,5.32
2022-07-25T05:57:17.965Z,5.50
2022-07-25T05:59:44.466Z,5.05
2022-07-25T06:02:11.228Z,6.20
2022-07-25T06:04:37.835Z,4.80
2022-07-25T06:07:04.415Z,5.63
2022-07-25T06:09:31.988Z,5.35
2022-07-25T06:12:01.074Z,5.53
2022-07-25T06:14:28.652Z,5.00
2022-07-25T06:16:55.427Z,5.17
2022-07-25T06:19:22.092Z,5.50
2022-07-25T06:21:48.805Z,6.10
2022-07-25T06:24:15.551Z,5.82
2022-07-25T06:26:42.823Z,5.40
2022-07-25T06:29:09.368Z,6.10
2022-07-25T06:31:36.029Z,5.80
2022-07-25T06:34:02.896Z,5.45
2022-07-25T06:36:32.735Z,5.65
2022-07-25T06:38:59.975Z,5.80
2022-07-25T06:41:26.916Z,5.75
2022-07-25T06:43:53.436Z,5.45
2022-07-25T06:46:20.226Z,5.70
2022-07-25T06:48:46.904Z,5.60
2022-07-25T06:51:13.556Z,5.18
2022-07-25T06:53:40.051Z,6.47
2022-07-25T06:56:06.669Z,5.38
2022-07-25T06:58:33.163Z,6.07
2022-07-25T07:01:01.368Z,5.40
2022-07-25T07:03:28.351Z,5.85
2022-07-25T07:05:55.440Z,6.18
2022-07-25T07:08:22.042Z,5.97
2022-07-25T07:10:48.583Z,5.68
2022-07-25T07:13:20.737Z,5.45
2022-07-25T07:15:50.955Z,5.78
2022-07-25T07:18:18.581Z,5.78
2022-07-25T07:20:45.275Z,5.80
2022-07-25T07:23:12.139Z,5.72
2022-07-25T07:25:43.669Z,6.03
2022-07-25T07:28:10.588Z,5.50
2022-07-25T07:31:13.315Z,5.15
2022-07-25T07:33:23.831Z,5.40
2022-07-25T07:35:50.399Z,5.60
2022-07-25T07:38:17.972Z,5.70
2022-07-25T07:40:44.472Z,5.60
2022-07-25T07:43:11.116Z,5.90
2022-07-25T07:45:37.687Z,6.35
2022-07-25T07:48:04.427Z,6.07
2022-07-25T07:50:31.130Z,5.45
2022-07-25T07:52:58.578Z,6.55
2022-07-25T07:55:43.953Z,6.10
2022-07-25T07:58:11.829Z,6.22
2022-07-25T08:00:41.841Z,6.28
2022-07-25T08:03:09.084Z,5.68
2022-07-25T08:05:41.050Z,5.80
2022-07-25T08:08:11.014Z,6.30
2022-07-25T08:10:40.595Z,6.40
2022-07-25T08:13:14.381Z,6.53
2022-07-25T08:15:41.401Z,5.97
2022-07-25T08:18:16.999Z,6.38
2022-07-25T08:20:47.632Z,6.70
2022-07-25T08:23:14.465Z,5.95
2022-07-25T08:25:41.924Z,5.88
2022-07-25T08:28:09.038Z,6.05
2022-07-25T08:30:36.820Z,6.43
2022-07-25T08:33:05.538Z,5.85
2022-07-25T08:35:33.386Z,6.22
2022-07-25T08:38:01.291Z,6.22
2022-07-25T08:40:29.851Z,5.68
2022-07-25T08:42:56.986Z,6.53
2022-07-25T08:45:23.528Z,6.20
2022-07-25T08:47:51.673Z,6.30
2022-07-25T08:50:20.693Z,5.72
2022-07-25T08:52:48.611Z,6.43
2022-07-25T08:55:20.084Z,5.80
2022-07-25T08:57:52.025Z,5.47
2022-07-25T09:00:21.405Z,5.28
2022-07-25T09:03:01.472Z,5.10
2022-07-25T09:05:30.327Z,5.70
2022-07-25T09:07:58.802Z,5.50
2022-07-25T09:10:27.143Z,5.03
2022-07-25T09:12:54.913Z,5.30
2022-07-25T09:15:33.715Z,5.28
2022-07-25T09:18:06.044Z,4.97
2022-07-25T09:20:44.521Z,5.35
2022-07-25T09:23:16.228Z,5.38
2022-07-25T09:25:43.064Z,5.10
2022-07-25T09:28:19.379Z,4.65
2022-07-25T09:30:57.334Z,4.75
2022-07-25T09:33:24.775Z,5.40
2022-07-25T09:35:52.601Z,4.70
2022-07-25T09:38:20.407Z,5.57
2022-07-25T09:40:56.776Z,5.07
2022-07-25T09:43:35.467Z,5.07
2022-07-25T09:46:02.091Z,5.57
2022-07-25T09:48:28.664Z,5.18
2022-07-25T09:50:55.405Z,5.88
2022-07-25T09:53:22.027Z,5.00
2022-07-25T09:55:48.586Z,5.38
2022-07-25T09:58:15.322Z,5.43
2022-07-25T10:00:42.899Z,5.32
2022-07-25T10:03:15.221Z,5.05
2022-07-25T10:05:56.745Z,4.93
2022-07-25T10:08:24.386Z,5.53
2022-07-25T10:10:52.163Z,4.85
2022-07-25T10:13:30.884Z,4.78
2022-07-25T10:15:57.810Z,5.13
2022-07-25T10:18:28.078Z,5.22
2022-07-25T10:20:57.168Z,4.75
2022-07-25T10:23:25.909Z,4.70
2022-07-25T10:26:10.903Z,5.43
2022-07-25T10:28:43.986Z,5.15
2022-07-25T10:31:22.617Z,4.82
2022-07-25T10:33:55.252Z,5.18
2022-07-25T10:36:23.485Z,4.80
2022-07-25T10:38:57.391Z,5.20
2022-07-25T10:41:26.150Z,4.70
2022-07-25T10:43:56.658Z,5.47
2022-07-25T10:46:27.321Z,6.30
2022-07-25T10:48:58.778Z,5.22
2022-07-25T10:51:30.404Z,5.35
2022-07-25T10:53:57.343Z,5.35
2022-07-25T10:56:26.340Z,5.47
2022-07-25T10:58:54.217Z,5.75
2022-07-25T11:01:34.593Z,5.13
2022-07-25T11:04:04.697Z,5.72
2022-07-25T11:06:41.966Z,5.65
2022-07-25T11:09:21.575Z,5.15
2022-07-25T11:11:53.298Z,4.85
2022-07-25T11:14:20.247Z,5.43
2022-07-25T11:16:49.964Z,5.33
2022-07-25T11:19:22.722Z,4.82
2022-07-25T11:21:52.503Z,5.45
2022-07-25T11:24:19.379Z,5.25
2022-07-25T11:26:51.427Z,4.90
2022-07-25T11:29:22.460Z,5.00
2022-07-25T11:31:56.629Z,4.25
2022-07-25T11:34:28.545Z,4.32
2022-07-25T11:36:57.388Z,5.25
2022-07-25T11:39:28.473Z,4.90
2022-07-25T11:42:16.527Z,4.50
2022-07-25T11:44:47.977Z,4.75
2022-07-25T11:47:33.251Z,4.90
2022-07-25T11:50:04.492Z,4.97
2022-07-25T11:52:34.168Z,4.50
2022-07-25T11:55:09.346Z,4.57
2022-07-25T11:57:41.602Z,5.20
2022-07-25T12:00:21.285Z,5.30
2022-07-25T12:02:49.740Z,5.82
2022-07-25T12:05:19.496Z,5.15
2022-07-25T12:07:48.699Z,4.30
2022-07-25T12:10:17.602Z,5.68
2022-07-25T12:12:55.768Z,5.05
2022-07-25T12:15:24.917Z,4.80
2022-07-25T12:17:52.894Z,4.68
2022-07-25T12:20:28.046Z,5.47
2022-07-25T12:23:05.113Z,4.57
2022-07-25T12:25:32.731Z,5.13
2022-07-25T12:28:00.420Z,4.93
2022-07-25T12:30:30.612Z,5.00
2022-07-25T12:32:58.599Z,5.88
2022-07-25T12:37:52.348Z,4.73
2022-07-25T12:40:19.213Z,5.87
2022-07-25T12:42:46.510Z,5.18
2022-07-25T12:45:14.948Z,5.80
2022-07-25T12:47:43.501Z,5.35
2022-07-25T12:50:10.144Z,5.13
2022-07-25T12:52:38.341Z,5.70
2022-07-25T12:55:10.250Z,4.88
2022-07-25T12:57:37.045Z,4.72
2022-07-25T13:00:09.226Z,5.78
2022-07-25T13:02:36.606Z,5.28
2022-07-25T13:05:03.454Z,5.63
2022-07-25T13:07:30.149Z,5.22
2022-07-25T13:09:56.784Z,5.93
2022-07-25T13:12:24.254Z,4.80
2022-07-25T13:14:51.389Z,5.05
2022-07-25T13:17:19.689Z,5.60
2022-07-25T13:19:48.005Z,4.57
2022-07-25T13:22:15.015Z,4.95
2022-07-25T13:24:41.576Z,5.63
2022-07-25T13:27:08.557Z,5.30
2022-07-25T13:29:35.824Z,4.13
2022-07-25T13:32:02.644Z,5.43
2022-07-25T13:34:29.635Z,5.43
2022-07-25T13:36:56.177Z,5.13
2022-07-25T13:39:22.808Z,5.53
2022-07-25T13:41:49.884Z,5.68
2022-07-25T13:44:16.569Z,5.50
2022-07-25T13:46:46.088Z,5.55
2022-07-25T13:49:13.165Z,5.93
2022-07-25T13:51:39.752Z,5.68
2022-07-25T13:54:06.560Z,6.00
2022-07-25T13:56:33.502Z,5.20
2022-07-25T13:59:00.164Z,5.77
2022-07-25T14:01:28.737Z,5.60
2022-07-25T14:03:55.603Z,6.10
2022-07-25T14:06:22.244Z,6.32
2022-07-25T14:08:48.856Z,5.93
2022-07-25T14:11:15.408Z,6.20
2022-07-25T14:13:43.544Z,6.35
2022-07-25T14:18:36.674Z,6.90
2022-07-25T14:21:03.497Z,6.07
2022-07-25T14:23:30.552Z,6.45
2022-07-25T14:25:58.583Z,5.97
2022-07-25T14:28:25.263Z,7.00
2022-07-25T14:30:52.363Z,6.63
2022-07-25T14:33:18.964Z,5.93
2022-07-25T14:35:45.472Z,6.45
2022-07-25T14:38:12.002Z,6.57
2022-07-25T14:40:38.663Z,6.03
2022-07-25T14:43:05.368Z,5.63
2022-07-25T14:45:32.035Z,5.45
2022-07-25T14:47:59.191Z,5.93
2022-07-25T14:50:27.554Z,6.78
2022-07-25T14:52:54.483Z,5.10
2022-07-25T14:55:22.249Z,5.05
2022-07-25T14:57:49.019Z,5.53
2022-07-25T15:00:15.784Z,4.78
2022-07-25T15:02:43.024Z,4.45
2022-07-25T15:05:09.848Z,4.53
2022-07-25T15:07:37.541Z,4.95
2022-07-25T15:10:04.451Z,4.30
2022-07-25T15:12:31.538Z,4.20
2022-07-25T15:14:58.201Z,4.38
2022-07-25T15:17:24.785Z,3.90
2022-07-25T15:19:51.447Z,3.95
2022-07-25T15:22:18.037Z,3.70
2022-07-25T15:25:17.204Z,3.45
2022-07-25T15:27:31.887Z,3.53
2022-07-25T15:29:58.539Z,4.22
2022-07-25T15:32:25.205Z,3.47
2022-07-25T15:34:51.831Z,3.63
2022-07-25T15:37:18.436Z,3.85
2022-07-25T15:39:45.501Z,3.90
2022-07-25T15:42:12.247Z,3.87
2022-07-25T15:44:38.835Z,3.28
2022-07-25T15:47:08.977Z,3.90
2022-07-25T15:49:36.959Z,3.38
2022-07-25T15:52:03.732Z,3.38
2022-07-25T15:54:30.447Z,2.80
2022-07-25T15:56:57.106Z,3.17
2022-07-25T15:59:24.674Z,2.97
2022-07-25T16:01:51.173Z,2.80
2022-07-25T16:04:17.853Z,3.15
2022-07-25T16:06:44.560Z,3.58
2022-07-25T16:09:12.574Z,2.72
2022-07-25T16:14:07.255Z,2.20
2022-07-25T16:19:00.633Z,2.50
2022-07-25T16:21:27.255Z,1.80
2022-07-25T16:23:54.103Z,2.35
2022-07-25T16:26:20.704Z,1.80
2022-07-25T16:28:47.687Z,2.20
2022-07-25T16:31:14.486Z,1.80
2022-07-25T16:33:41.072Z,2.30
2022-07-25T16:36:08.202Z,1.98
2022-07-25T16:38:34.925Z,2.30
2022-07-25T16:41:01.567Z,1.83
2022-07-25T16:43:28.195Z,2.13
2022-07-25T16:45:54.801Z,2.30
2022-07-25T16:48:21.778Z,1.98
2022-07-25T16:50:48.364Z,1.73
2022-07-25T16:53:14.976Z,1.90
2022-07-25T16:55:41.585Z,1.88
2022-07-25T16:58:08.264Z,2.65
2022-07-25T17:00:34.855Z,1.80
2022-07-25T17:03:01.407Z,2.70
2022-07-25T17:05:28.239Z,2.30
2022-07-25T17:07:59.445Z,2.58
2022-07-25T17:10:27.474Z,1.98
2022-07-25T17:12:54.510Z,2.90
2022-07-25T17:15:21.197Z,1.98
2022-07-25T17:17:47.815Z,2.83
2022-07-25T17:20:14.849Z,2.75
2022-07-25T17:22:41.514Z,2.70
2022-07-25T17:25:08.414Z,3.15
2022-07-25T17:27:35.180Z,3.20
2022-07-25T17:30:02.239Z,2.63
2022-07-25T17:32:30.228Z,3.40
2022-07-25T17:34:57.579Z,3.00
2022-07-25T17:37:24.422Z,3.00
2022-07-25T17:39:51.200Z,2.90
2022-07-25T17:42:22.305Z,2.70
2022-07-25T17:44:52.624Z,2.53
2022-07-25T17:47:19.563Z,3.03
2022-07-25T17:49:46.264Z,2.70
2022-07-25T17:52:12.848Z,2.50
2022-07-25T17:54:42.860Z,2.85
2022-07-25T17:57:10.225Z,2.58
2022-07-25T17:59:36.835Z,2.85
2022-07-25T18:02:03.668Z,2.40
2022-07-25T18:04:30.768Z,2.50
2022-07-25T18:06:57.307Z,2.60
2022-07-25T18:09:24.327Z,3.20
2022-07-25T18:11:51.149Z,3.03
2022-07-25T18:14:17.786Z,2.78
2022-07-25T18:16:45.599Z,2.28
2022-07-25T18:19:12.809Z,3.40
2022-07-25T18:21:39.591Z,3.00
2022-07-25T18:24:07.055Z,2.80
2022-07-25T18:26:34.762Z,2.50
2022-07-25T18:29:01.311Z,2.47
2022-07-25T18:31:28.164Z,2.72
2022-07-25T18:33:55.158Z,3.27
2022-07-25T18:36:21.845Z,2.78
2022-07-25T18:38:48.653Z,2.40
2022-07-25T18:41:31.012Z,2.92
2022-07-25T18:43:57.731Z,3.10
2022-07-25T18:46:24.496Z,2.40
2022-07-25T18:48:52.095Z,2.92
2022-07-25T18:51:20.475Z,3.20
2022-07-25T18:53:48.522Z,3.25
2022-07-25T18:56:16.236Z,3.53
2022-07-25T18:58:43.316Z,2.65
2022-07-25T19:01:10.327Z,3.28
2022-07-25T19:03:37.731Z,3.00
2022-07-25T19:06:05.160Z,2.88
2022-07-25T19:08:32.694Z,3.08
2022-07-25T19:10:59.409Z,3.40
2022-07-25T19:13:48.927Z,3.20
2022-07-25T19:16:15.281Z,3.05
2022-07-25T19:18:43.179Z,3.40
2022-07-25T19:21:09.735Z,3.53
2022-07-25T19:23:36.292Z,3.42
2022-07-25T19:26:03.049Z,3.58
2022-07-25T19:28:29.683Z,3.58
2022-07-25T19:30:56.852Z,3.45
2022-07-25T19:33:24.345Z,4.20
2022-07-25T19:35:51.235Z,3.63
2022-07-25T19:40:46.991Z,3.38
2022-07-25T19:43:13.626Z,4.45
2022-07-25T19:45:40.306Z,3.88
2022-07-25T19:48:07.127Z,3.67
2022-07-25T19:50:33.939Z,3.13
2022-07-25T19:53:01.363Z,3.33
2022-07-25T19:55:28.678Z,3.03
2022-07-25T19:57:55.358Z,3.60
2022-07-25T20:00:22.220Z,3.20
2022-07-25T20:02:48.841Z,3.13
2022-07-25T20:07:43.883Z,3.10
2022-07-25T20:10:11.048Z,2.92
2022-07-25T20:12:38.249Z,3.07
2022-07-25T20:15:05.548Z,2.83
2022-07-25T20:17:32.072Z,2.23
2022-07-25T20:19:58.792Z,2.47
2022-07-25T20:22:26.233Z,2.30
2022-07-25T20:24:52.902Z,2.33
2022-07-25T20:27:19.458Z,3.28
2022-07-25T20:29:46.882Z,2.25
2022-07-25T20:32:13.508Z,2.35
2022-07-25T20:34:40.063Z,2.20
2022-07-25T20:37:06.693Z,2.17
2022-07-25T20:39:33.200Z,2.20
2022-07-25T20:42:01.378Z,2.03
2022-07-25T20:44:28.275Z,2.42
2022-07-25T20:46:54.941Z,2.25
2022-07-25T20:49:21.675Z,2.30
2022-07-25T20:51:54.165Z,3.47
2022-07-25T20:54:21.254Z,1.80
2022-07-25T20:56:47.916Z,1.55
2022-07-25T20:59:14.509Z,1.45
2022-07-25T21:01:41.666Z,2.30
2022-07-25T21:04:08.537Z,1.60
2022-07-25T21:06:35.085Z,2.03
2022-07-25T21:09:04.420Z,1.40
2022-07-25T21:11:31.039Z,1.70
2022-07-25T21:13:57.658Z,1.30
2022-07-25T21:16:27.241Z,1.30
2022-07-25T21:18:56.020Z,1.27
2022-07-25T21:21:23.782Z,1.55
2022-07-25T21:23:51.051Z,1.50
2022-07-25T21:26:18.201Z,1.23
2022-07-25T21:28:44.947Z,1.63
2022-07-25T21:31:12.726Z,1.20
2022-07-25T21:33:39.558Z,1.67
2022-07-25T21:36:06.451Z,1.02
2022-07-25T21:38:34.925Z,1.10
2022-07-25T21:41:01.812Z,1.23
2022-07-25T21:43:28.489Z,1.50
2022-07-25T21:45:55.222Z,1.38
2022-07-25T21:48:43.057Z,1.52
2022-07-25T21:51:18.789Z,1.30
2022-07-25T21:53:47.682Z,1.58
2022-07-25T21:56:15.557Z,1.50
2022-07-25T21:58:42.175Z,1.80
2022-07-25T22:01:08.844Z,1.75
2022-07-25T22:03:35.437Z,1.45
2022-07-25T22:06:02.122Z,1.27
2022-07-25T22:08:28.762Z,1.05
2022-07-25T22:10:55.480Z,2.03
2022-07-25T22:13:22.065Z,1.63
2022-07-25T22:15:48.835Z,1.73
2022-07-25T22:18:15.394Z,1.48
2022-07-25T22:20:43.043Z,1.73
2022-07-25T22:23:09.590Z,1.52
2022-07-25T22:25:36.195Z,1.48
2022-07-25T22:28:02.836Z,1.95
2022-07-25T22:30:29.346Z,1.80
2022-07-25T22:32:55.932Z,1.45
2022-07-25T22:35:22.549Z,1.42
2022-07-25T22:37:49.203Z,1.50
2022-07-25T22:40:15.951Z,1.17
2022-07-25T22:42:42.688Z,1.75
2022-07-25T22:45:09.833Z,1.38
2022-07-25T22:47:36.507Z,1.20
2022-07-25T22:50:04.246Z,2.13
2022-07-25T22:52:31.033Z,1.70
2022-07-25T22:54:57.626Z,1.25
2022-07-25T22:57:24.224Z,1.38
2022-07-25T22:59:50.966Z,1.80
2022-07-25T23:02:17.527Z,1.48
2022-07-25T23:04:44.105Z,1.38
2022-07-25T23:07:10.760Z,1.38
2022-07-25T23:09:37.297Z,1.55
2022-07-25T23:12:04.888Z,1.60
2022-07-25T23:14:31.439Z,2.53
2022-07-25T23:17:16.261Z,1.48
2022-07-25T23:19:43.704Z,1.35
2022-07-25T23:22:10.307Z,1.23
2022-07-25T23:24:38.107Z,1.55
2022-07-25T23:27:05.086Z,1.20
2022-07-25T23:29:31.828Z,1.40
2022-07-25T23:31:58.460Z,1.55
2022-07-25T23:34:25.084Z,1.13
2022-07-25T23:36:51.952Z,1.20
2022-07-25T23:39:18.566Z,1.00
2022-07-25T23:41:45.185Z,1.52
2022-07-25T23:44:11.783Z,1.30
2022-07-25T23:46:38.598Z,1.17
2022-07-25T23:49:06.530Z,1.50
2022-07-25T23:51:33.320Z,1.15
2022-07-25T23:54:00.044Z,1.02
2022-07-25T23:56:26.722Z,1.30
2022-07-25T23:58:54.353Z,1.30
